McGehee, Arkansas
Current Conditions -  °F | °C
As of 7:53 AM on Tuesday 21 Oct 2014 (Local Time) from KLLQ Reporting Station
Overcast Overcast  
Wind Chill: 59°   Ceiling: 4500
Heat Index: 59°   Visibility: 9mi
Dew Point: 57°   Wind: 0mph
Humidity: 93%   Direction: NA
Pressure: 30.08"   Gusts: NA
Location:  33.63°N, 91.39°W
Report Text: KLLQ 211253Z AUTO 00000KT 9SM OVC045 15/14 A3008 RMK AO2 SLP186 T01500139
Loading
Personal Weather Stations






























Interactive Weather Map New forecast layout! Learn more

10-Day Weather Forecast

Advertisements
Track Severe Weather on mobile